sim
Sign-in with your pilot id or email,
or register
Callsign
Passwort

Schedule Details

Flight Number: DLH2654
Departure: Munich Airport (EDDM) at 08:00
Arrival: Funchal Cristiano Ronaldo Airport (LPMA) at 12:20
Route: Lufthansa Passenger Schedule. Enter filed route here before submitting Pirep.

Weather Information
Getting current METAR information for EDDM 210150Z VRB01KT CAVOK 08/08 Q1016 NOSIG
Getting current METAR information for LPMA 210200Z 34004KT 9999 SCT015 22/17 Q1019

Schedule Frequency

Route Map